createdAt,value
2019-05-07T00:00:45.314Z,92.90
2019-05-07T00:03:15.837Z,92.90
2019-05-07T00:05:46.057Z,93.00
2019-05-07T00:08:16.176Z,93.00
2019-05-07T00:10:46.294Z,93.00
2019-05-07T00:13:16.415Z,92.90
2019-05-07T00:15:46.235Z,92.90
2019-05-07T00:18:16.068Z,93.00
2019-05-07T00:20:46.156Z,93.00
2019-05-07T00:23:16.280Z,93.00
2019-05-07T00:25:46.100Z,93.00
2019-05-07T00:28:16.203Z,93.00
2019-05-07T00:30:46.435Z,93.40
2019-05-07T00:33:16.552Z,93.00
2019-05-07T00:35:48.311Z,93.00
2019-05-07T00:38:22.441Z,93.00
2019-05-07T00:40:54.491Z,93.00
2019-05-07T00:43:25.943Z,93.00
2019-05-07T00:45:57.406Z,93.10
2019-05-07T00:48:27.203Z,93.10
2019-05-07T00:51:17.294Z,93.10
2019-05-07T00:53:47.169Z,93.10
2019-05-07T00:56:16.982Z,93.10
2019-05-07T00:58:47.141Z,93.20
2019-05-07T01:01:19.503Z,93.60
2019-05-07T01:03:49.732Z,93.20
2019-05-07T01:06:19.850Z,93.20
2019-05-07T01:08:52.387Z,93.20
2019-05-07T01:11:22.602Z,93.30
2019-05-07T01:13:52.647Z,93.30
2019-05-07T01:16:22.788Z,93.30
2019-05-07T01:18:53.773Z,93.30
2019-05-07T01:21:24.156Z,93.30
2019-05-07T01:23:54.376Z,93.30
2019-05-07T01:26:24.200Z,93.40
2019-05-07T01:28:58.611Z,93.40
2019-05-07T01:31:32.891Z,93.40
2019-05-07T01:34:04.688Z,93.50
2019-05-07T01:36:34.811Z,93.40
2019-05-07T01:39:06.253Z,93.40
2019-05-07T01:41:36.370Z,93.50
2019-05-07T01:44:06.423Z,93.60
2019-05-07T01:46:36.499Z,93.50
2019-05-07T01:49:06.315Z,93.60
2019-05-07T01:51:36.195Z,93.60
2019-05-07T01:54:07.494Z,93.80
2019-05-07T01:56:37.314Z,93.90
2019-05-07T01:59:07.417Z,93.90
2019-05-07T02:01:37.531Z,94.00
2019-05-07T02:04:08.974Z,94.00
2019-05-07T02:06:42.973Z,94.10
2019-05-07T02:09:26.787Z,94.10
2019-05-07T02:12:02.455Z,94.30
2019-05-07T02:14:33.128Z,94.40
2019-05-07T02:17:04.067Z,94.50
2019-05-07T02:19:34.878Z,94.50
2019-05-07T02:22:05.010Z,94.60
2019-05-07T02:24:35.137Z,94.70
2019-05-07T02:27:06.167Z,94.80
2019-05-07T02:29:38.195Z,95.00
2019-05-07T02:32:07.501Z,95.20
2019-05-07T02:34:37.653Z,95.20
2019-05-07T02:37:09.516Z,95.20
2019-05-07T02:39:55.785Z,95.30
2019-05-07T02:42:25.858Z,95.40
2019-05-07T02:45:09.148Z,95.40
2019-05-07T02:47:39.014Z,95.40
2019-05-07T02:50:16.977Z,95.30
2019-05-07T02:52:54.350Z,95.40
2019-05-07T02:55:28.675Z,95.30
2019-05-07T02:57:58.828Z,95.30
2019-05-07T03:00:28.727Z,95.20
2019-05-07T03:02:58.526Z,95.10
2019-05-07T03:05:28.356Z,95.10
2019-05-07T03:07:58.571Z,95.00
2019-05-07T03:10:28.544Z,94.90
2019-05-07T03:12:58.423Z,95.00
2019-05-07T03:15:28.485Z,94.80
2019-05-07T03:17:58.656Z,94.80
2019-05-07T03:20:33.264Z,94.80
2019-05-07T03:23:03.274Z,94.90
2019-05-07T03:25:34.879Z,95.10
2019-05-07T03:28:04.693Z,95.10
2019-05-07T03:30:39.180Z,95.10
2019-05-07T03:33:16.058Z,95.10
2019-05-07T03:35:47.497Z,95.10
2019-05-07T03:38:17.714Z,95.10
2019-05-07T03:40:47.858Z,95.00
2019-05-07T03:43:17.802Z,95.00
2019-05-07T03:45:55.356Z,95.00
2019-05-07T03:48:27.214Z,95.10
2019-05-07T03:50:57.349Z,95.10
2019-05-07T03:53:27.161Z,95.20
2019-05-07T03:55:57.261Z,95.20
2019-05-07T03:58:27.072Z,95.30
2019-05-07T04:00:56.908Z,95.30
2019-05-07T04:03:27.005Z,95.30
2019-05-07T04:05:56.830Z,95.50
2019-05-07T04:08:26.647Z,95.50
2019-05-07T04:10:56.459Z,95.70
2019-05-07T04:13:26.287Z,95.90
2019-05-07T04:15:56.095Z,95.80
2019-05-07T04:18:26.192Z,95.70
2019-05-07T04:20:56.008Z,95.70
2019-05-07T04:23:26.325Z,95.60
2019-05-07T04:25:58.017Z,95.50
2019-05-07T04:28:46.640Z,95.40
2019-05-07T04:31:17.774Z,95.40
2019-05-07T04:33:47.892Z,95.40
2019-05-07T04:36:19.370Z,95.20
2019-05-07T04:38:49.183Z,95.20
2019-05-07T04:41:19.277Z,95.00
2019-05-07T04:43:49.103Z,95.00
2019-05-07T04:46:18.991Z,95.00
2019-05-07T04:48:48.848Z,94.80
2019-05-07T04:51:23.064Z,94.80
2019-05-07T04:53:54.096Z,94.60
2019-05-07T04:56:24.075Z,94.10
2019-05-07T04:58:54.056Z,93.70
2019-05-07T05:01:25.768Z,93.00
2019-05-07T05:03:55.600Z,92.50
2019-05-07T05:06:25.427Z,92.00
2019-05-07T05:08:56.257Z,91.90
2019-05-07T05:11:27.135Z,91.30
2019-05-07T05:13:57.259Z,91.40
2019-05-07T05:16:27.487Z,91.10
2019-05-07T05:18:57.458Z,91.10
2019-05-07T05:21:42.133Z,90.40
2019-05-07T05:24:13.599Z,89.70
2019-05-07T05:26:43.417Z,87.50
2019-05-07T05:29:13.485Z,85.90
2019-05-07T05:31:43.289Z,85.00
2019-05-07T05:34:13.375Z,83.40
2019-05-07T05:36:43.183Z,83.30
2019-05-07T05:39:13.305Z,82.60
2019-05-07T05:41:44.836Z,81.00
2019-05-07T05:44:16.352Z,79.50
2019-05-07T05:46:46.601Z,78.60
2019-05-07T05:49:16.797Z,77.80
2019-05-07T05:51:52.524Z,77.30
2019-05-07T05:54:31.822Z,76.10
2019-05-07T05:57:06.203Z,76.20
2019-05-07T05:59:55.474Z,76.10
2019-05-07T06:02:39.148Z,74.90
2019-05-07T06:05:27.320Z,72.80
2019-05-07T06:07:58.771Z,70.10
2019-05-07T06:10:46.771Z,67.90
2019-05-07T06:13:18.501Z,64.70
2019-05-07T06:15:59.436Z,62.00
2019-05-07T06:18:47.557Z,59.20
2019-05-07T06:21:24.145Z,56.50
2019-05-07T06:23:56.766Z,52.70
2019-05-07T06:26:26.637Z,50.30
2019-05-07T06:28:56.452Z,46.80
2019-05-07T06:31:26.541Z,46.40
2019-05-07T06:33:56.356Z,44.20
2019-05-07T06:36:26.926Z,41.50
2019-05-07T06:38:58.696Z,36.90
2019-05-07T06:41:32.181Z,36.10
2019-05-07T06:44:06.118Z,33.80
2019-05-07T06:46:38.592Z,33.70
2019-05-07T06:49:07.777Z,33.30
2019-05-07T06:51:37.610Z,33.40
2019-05-07T06:54:07.794Z,33.50
2019-05-07T06:56:37.863Z,34.00
2019-05-07T06:59:13.016Z,33.90
2019-05-07T07:01:48.810Z,33.90
2019-05-07T07:04:23.275Z,34.30
2019-05-07T07:06:55.045Z,33.30
2019-05-07T07:09:38.527Z,31.90
2019-05-07T07:12:26.117Z,31.10
2019-05-07T07:14:58.103Z,30.20
2019-05-07T07:17:27.825Z,29.60
2019-05-07T07:19:57.646Z,28.80
2019-05-07T07:22:27.557Z,29.00
2019-05-07T07:24:57.385Z,29.10
2019-05-07T07:27:27.472Z,28.80
2019-05-07T07:30:04.874Z,29.20
2019-05-07T07:32:42.527Z,28.50
2019-05-07T07:35:13.026Z,28.00
2019-05-07T07:37:43.157Z,28.10
2019-05-07T07:40:15.669Z,28.80
2019-05-07T07:42:45.572Z,30.00
2019-05-07T07:45:18.817Z,30.40
2019-05-07T07:47:49.704Z,30.20
2019-05-07T07:50:22.254Z,30.50
2019-05-07T07:52:52.957Z,29.70
2019-05-07T07:55:24.706Z,28.40
2019-05-07T07:57:58.957Z,28.50
2019-05-07T08:00:39.722Z,26.60
2019-05-07T08:03:13.221Z,25.70
2019-05-07T08:05:42.903Z,25.50
2019-05-07T08:08:13.756Z,25.20
2019-05-07T08:10:43.816Z,27.20
2019-05-07T08:13:13.719Z,27.80
2019-05-07T08:15:43.620Z,27.60
2019-05-07T08:18:13.799Z,27.30
2019-05-07T08:20:43.734Z,27.80
2019-05-07T08:23:13.580Z,29.70
2019-05-07T08:25:49.024Z,30.80
2019-05-07T08:28:22.842Z,32.10
2019-05-07T08:30:56.445Z,30.60
2019-05-07T08:33:27.901Z,29.60
2019-05-07T08:36:12.089Z,31.20
2019-05-07T08:38:49.320Z,27.90
2019-05-07T08:41:22.498Z,26.80
2019-05-07T08:44:11.611Z,27.60
2019-05-07T08:46:34.695Z,30.00
2019-05-07T08:49:06.243Z,33.80
2019-05-07T08:51:36.344Z,36.20
2019-05-07T08:54:06.234Z,38.40
2019-05-07T08:56:38.022Z,37.80
2019-05-07T08:59:08.522Z,35.70
2019-05-07T09:01:43.053Z,35.10
2019-05-07T09:04:13.510Z,35.40
2019-05-07T09:06:43.535Z,38.20
2019-05-07T09:09:14.019Z,40.20
2019-05-07T09:11:44.541Z,41.40
2019-05-07T09:14:14.623Z,41.80
2019-05-07T09:16:44.517Z,40.70
2019-05-07T09:19:14.334Z,35.10
2019-05-07T09:21:44.570Z,30.40
2019-05-07T09:24:14.725Z,29.90
2019-05-07T09:26:46.503Z,31.10
2019-05-07T09:29:27.442Z,32.80
2019-05-07T09:32:12.102Z,33.90
2019-05-07T09:34:52.042Z,34.70
2019-05-07T09:37:29.927Z,35.90
2019-05-07T09:39:59.754Z,36.10
2019-05-07T09:42:29.644Z,37.10
2019-05-07T09:45:01.755Z,37.40
2019-05-07T09:47:32.543Z,36.00
2019-05-07T09:50:07.581Z,34.60
2019-05-07T09:52:35.264Z,31.60
2019-05-07T09:55:16.471Z,30.00
2019-05-07T09:57:42.239Z,29.80
2019-05-07T10:00:13.527Z,29.70
2019-05-07T10:02:43.828Z,27.80
2019-05-07T10:05:14.038Z,26.30
2019-05-07T10:07:44.195Z,27.80
2019-05-07T10:10:15.802Z,29.60
2019-05-07T10:12:53.319Z,32.20
2019-05-07T10:15:23.296Z,34.90
2019-05-07T10:17:54.903Z,36.70
2019-05-07T10:20:26.637Z,38.80
2019-05-07T10:22:56.860Z,40.40
2019-05-07T10:25:30.105Z,41.70
2019-05-07T10:28:01.943Z,42.60
2019-05-07T10:30:33.456Z,42.90
2019-05-07T10:33:03.677Z,43.00
2019-05-07T10:35:34.119Z,43.90
2019-05-07T10:38:04.358Z,43.80
2019-05-07T10:40:34.247Z,43.90
2019-05-07T10:43:04.289Z,43.70
2019-05-07T10:45:42.157Z,43.80
2019-05-07T10:48:32.116Z,43.50
2019-05-07T10:51:04.776Z,43.40
2019-05-07T10:53:35.358Z,43.00
2019-05-07T10:56:05.326Z,43.20
2019-05-07T10:58:35.382Z,43.30
2019-05-07T11:01:05.393Z,43.20
2019-05-07T11:03:35.195Z,42.30
2019-05-07T11:06:05.164Z,42.00
2019-05-07T11:08:35.263Z,40.80
2019-05-07T11:11:05.166Z,40.10
2019-05-07T11:13:34.976Z,39.40
2019-05-07T11:16:11.642Z,38.90
2019-05-07T11:18:48.618Z,39.30
2019-05-07T11:21:29.987Z,38.60
2019-05-07T11:24:03.230Z,38.10
2019-05-07T11:26:32.964Z,37.80
2019-05-07T11:29:03.045Z,37.70
2019-05-07T11:31:33.268Z,37.60
2019-05-07T11:34:03.434Z,37.10
2019-05-07T11:36:34.357Z,36.60
2019-05-07T11:39:06.149Z,36.30
2019-05-07T11:41:54.838Z,36.30
2019-05-07T11:44:26.623Z,37.30
2019-05-07T11:47:14.763Z,36.90
2019-05-07T11:50:03.303Z,36.70
2019-05-07T11:52:35.850Z,36.80
2019-05-07T11:55:06.691Z,37.70
2019-05-07T11:57:36.768Z,37.70
2019-05-07T12:00:09.961Z,37.60
2019-05-07T12:02:41.979Z,37.70
2019-05-07T12:05:12.091Z,37.00
2019-05-07T12:07:42.092Z,36.60
2019-05-07T12:10:12.263Z,36.80
2019-05-07T12:12:43.866Z,37.30
2019-05-07T12:15:13.851Z,37.20
2019-05-07T12:17:44.005Z,37.40
2019-05-07T12:20:15.715Z,37.90
2019-05-07T12:22:47.228Z,38.10
2019-05-07T12:25:21.051Z,37.20
2019-05-07T12:27:52.743Z,36.90
2019-05-07T12:30:42.663Z,37.10
2019-05-07T12:33:22.630Z,37.00
2019-05-07T12:35:52.732Z,37.10
2019-05-07T12:38:22.622Z,37.30
2019-05-07T12:40:52.718Z,36.20
2019-05-07T12:43:22.611Z,36.80
2019-05-07T12:45:52.632Z,36.20
2019-05-07T12:48:22.729Z,35.50
2019-05-07T12:50:52.856Z,35.20
2019-05-07T12:53:28.826Z,35.30
2019-05-07T12:56:02.167Z,35.20
2019-05-07T12:58:32.415Z,34.70
2019-05-07T13:01:13.008Z,34.00
2019-05-07T13:03:56.341Z,32.80
2019-05-07T13:06:26.312Z,31.70
2019-05-07T13:08:56.431Z,31.20
2019-05-07T13:11:26.492Z,32.30
2019-05-07T13:13:56.595Z,33.90
2019-05-07T13:16:26.489Z,34.90
2019-05-07T13:18:56.603Z,36.00
2019-05-07T13:21:26.747Z,37.00
2019-05-07T13:23:56.863Z,37.10
2019-05-07T13:26:27.643Z,36.90
2019-05-07T13:28:57.700Z,37.00
2019-05-07T13:31:29.760Z,36.90
2019-05-07T13:34:02.944Z,38.40
2019-05-07T13:36:35.315Z,38.10
2019-05-07T13:39:12.168Z,38.30
2019-05-07T13:41:44.111Z,38.10
2019-05-07T13:44:25.075Z,37.80
2019-05-07T13:46:57.039Z,38.00
2019-05-07T13:49:27.155Z,38.60
2019-05-07T13:52:03.410Z,38.10
2019-05-07T13:54:29.139Z,38.60
2019-05-07T13:56:59.049Z,38.10
2019-05-07T13:59:29.099Z,38.50
2019-05-07T14:02:04.734Z,39.60
2019-05-07T14:04:33.316Z,39.80
2019-05-07T14:07:03.207Z,40.20
2019-05-07T14:09:33.365Z,41.10
2019-05-07T14:12:03.549Z,40.80
2019-05-07T14:14:34.515Z,40.60
2019-05-07T14:17:05.045Z,40.20
2019-05-07T14:19:36.521Z,39.60
2019-05-07T14:22:15.368Z,38.90
2019-05-07T14:24:37.870Z,39.00
2019-05-07T14:27:07.812Z,38.60
2019-05-07T14:29:37.654Z,37.20
2019-05-07T14:32:12.821Z,37.20
2019-05-07T14:34:45.077Z,37.00
2019-05-07T14:37:16.800Z,37.20
2019-05-07T14:39:46.908Z,36.80
2019-05-07T14:42:18.647Z,35.70
2019-05-07T14:44:49.449Z,35.70
2019-05-07T14:47:22.087Z,34.60
2019-05-07T14:49:52.913Z,34.30
2019-05-07T14:52:32.207Z,35.00
2019-05-07T14:54:55.176Z,35.90
2019-05-07T14:57:25.429Z,37.20
2019-05-07T14:59:55.495Z,37.80
2019-05-07T15:02:25.723Z,38.20
2019-05-07T15:04:55.904Z,39.40
2019-05-07T15:07:25.876Z,38.70
2019-05-07T15:09:56.322Z,38.40
2019-05-07T15:12:26.219Z,38.40
2019-05-07T15:14:56.137Z,39.10
2019-05-07T15:17:33.333Z,39.10
2019-05-07T15:20:04.180Z,39.00
2019-05-07T15:22:49.075Z,38.60
2019-05-07T15:25:11.954Z,38.70
2019-05-07T15:27:42.151Z,40.00
2019-05-07T15:30:13.011Z,39.50
2019-05-07T15:32:42.931Z,39.80
2019-05-07T15:35:13.298Z,40.50
2019-05-07T15:37:43.292Z,40.20
2019-05-07T15:40:13.344Z,40.20
2019-05-07T15:42:43.274Z,39.80
2019-05-07T15:45:13.797Z,39.80
2019-05-07T15:47:45.377Z,39.70
2019-05-07T15:50:15.859Z,39.80
2019-05-07T15:52:58.222Z,40.00
2019-05-07T15:55:19.198Z,40.20
2019-05-07T15:57:52.051Z,39.20
2019-05-07T16:00:24.431Z,39.30
2019-05-07T16:02:58.579Z,39.30
2019-05-07T16:05:28.775Z,39.10
2019-05-07T16:07:58.973Z,39.20
2019-05-07T16:10:29.080Z,39.20
2019-05-07T16:12:58.995Z,39.00
2019-05-07T16:15:28.943Z,39.20
2019-05-07T16:18:02.785Z,40.10
2019-05-07T16:20:33.855Z,40.50
2019-05-07T16:23:14.366Z,40.60
2019-05-07T16:25:35.759Z,40.50
2019-05-07T16:28:06.016Z,40.10
2019-05-07T16:30:36.200Z,40.30
2019-05-07T16:33:06.274Z,40.40
2019-05-07T16:35:36.465Z,39.80
2019-05-07T16:38:06.371Z,39.90
2019-05-07T16:40:36.241Z,39.70
2019-05-07T16:43:06.338Z,39.70
2019-05-07T16:45:36.215Z,40.20
2019-05-07T16:48:06.065Z,40.30
2019-05-07T16:50:36.123Z,40.00
2019-05-07T16:53:06.219Z,40.50
2019-05-07T16:55:36.903Z,40.40
2019-05-07T16:58:12.544Z,40.60
2019-05-07T17:00:44.595Z,41.00
2019-05-07T17:03:16.232Z,41.50
2019-05-07T17:05:47.959Z,41.60
2019-05-07T17:08:19.747Z,41.50
2019-05-07T17:10:49.639Z,41.80
2019-05-07T17:13:19.741Z,42.50
2019-05-07T17:15:59.833Z,42.50
2019-05-07T17:18:32.380Z,42.00
2019-05-07T17:21:02.216Z,42.30
2019-05-07T17:23:43.734Z,43.00
2019-05-07T17:26:04.926Z,43.60
2019-05-07T17:28:36.146Z,44.00
2019-05-07T17:31:06.383Z,44.20
2019-05-07T17:33:36.380Z,45.10
2019-05-07T17:36:06.363Z,45.60
2019-05-07T17:38:37.870Z,46.10
2019-05-07T17:41:13.589Z,46.60
2019-05-07T17:43:39.931Z,46.90
2019-05-07T17:46:09.856Z,46.70
2019-05-07T17:48:40.012Z,46.80
2019-05-07T17:51:12.431Z,52.70
2019-05-07T17:53:55.866Z,47.40
2019-05-07T17:56:14.013Z,47.00
2019-05-07T17:58:44.120Z,47.10
2019-05-07T18:01:14.027Z,47.40
2019-05-07T18:03:44.042Z,47.80
2019-05-07T18:06:13.947Z,48.00
2019-05-07T18:08:43.794Z,47.90
2019-05-07T18:11:20.802Z,48.40
2019-05-07T18:13:46.101Z,48.90
2019-05-07T18:16:17.836Z,49.40
2019-05-07T18:18:48.031Z,50.00
2019-05-07T18:21:17.872Z,50.40
2019-05-07T18:23:48.037Z,50.60
2019-05-07T18:26:29.601Z,50.90
2019-05-07T18:28:49.745Z,50.70
2019-05-07T18:31:22.155Z,51.00
2019-05-07T18:33:56.933Z,51.10
2019-05-07T18:36:26.902Z,51.70
2019-05-07T18:38:57.065Z,51.90
2019-05-07T18:41:27.191Z,51.80
2019-05-07T18:44:08.927Z,52.10
2019-05-07T18:46:28.855Z,52.50
2019-05-07T18:48:58.709Z,53.10
2019-05-07T18:51:28.551Z,53.60
2019-05-07T18:53:58.632Z,54.40
2019-05-07T18:56:28.867Z,54.70
2019-05-07T18:58:58.687Z,55.20
2019-05-07T19:01:32.651Z,56.00
2019-05-07T19:04:02.609Z,56.60
2019-05-07T19:06:32.504Z,57.10
2019-05-07T19:09:02.336Z,57.70
2019-05-07T19:11:34.126Z,58.20
2019-05-07T19:14:04.199Z,58.50
2019-05-07T19:16:34.284Z,59.00
2019-05-07T19:19:04.291Z,59.60
2019-05-07T19:21:34.164Z,60.30
2019-05-07T19:24:04.438Z,61.30
2019-05-07T19:26:34.542Z,61.70
2019-05-07T19:29:04.491Z,62.30
2019-05-07T19:31:34.681Z,63.30
2019-05-07T19:34:04.660Z,64.40
2019-05-07T19:36:34.511Z,64.10
2019-05-07T19:39:05.928Z,64.40
2019-05-07T19:41:37.484Z,64.50
2019-05-07T19:44:07.311Z,64.70
2019-05-07T19:46:37.443Z,65.50
2019-05-07T19:49:07.412Z,65.80
2019-05-07T19:51:37.289Z,66.10
2019-05-07T19:54:08.876Z,66.60
2019-05-07T19:56:42.450Z,66.90
2019-05-07T19:59:12.472Z,67.20
2019-05-07T20:01:44.441Z,67.00
2019-05-07T20:04:14.527Z,67.20
2019-05-07T20:06:44.692Z,67.40
2019-05-07T20:09:16.236Z,68.00
2019-05-07T20:11:47.786Z,68.40
2019-05-07T20:14:19.087Z,68.40
2019-05-07T20:16:49.127Z,68.50
2019-05-07T20:19:18.965Z,68.40
2019-05-07T20:21:49.122Z,68.90
2019-05-07T20:24:18.968Z,69.40
2019-05-07T20:26:52.446Z,70.00
2019-05-07T20:29:22.931Z,70.40
2019-05-07T20:31:53.369Z,70.70
2019-05-07T20:34:23.743Z,71.20
2019-05-07T20:36:53.828Z,71.50
2019-05-07T20:39:23.920Z,71.70
2019-05-07T20:41:53.781Z,71.90
2019-05-07T20:44:23.927Z,72.10
2019-05-07T20:46:54.003Z,72.50
2019-05-07T20:49:24.150Z,72.70
2019-05-07T20:51:54.021Z,72.90
2019-05-07T20:54:26.539Z,73.10
2019-05-07T20:57:02.273Z,73.30
2019-05-07T20:59:32.890Z,73.60
2019-05-07T21:02:02.908Z,73.80
2019-05-07T21:04:33.130Z,74.30
2019-05-07T21:07:03.099Z,74.60
2019-05-07T21:09:33.055Z,74.90
2019-05-07T21:12:03.276Z,75.30
2019-05-07T21:14:33.427Z,75.20
2019-05-07T21:17:03.511Z,75.60
2019-05-07T21:19:33.366Z,75.50
2019-05-07T21:22:03.238Z,75.40
2019-05-07T21:24:33.282Z,75.10
2019-05-07T21:27:03.123Z,74.80
2019-05-07T21:29:32.939Z,74.80
2019-05-07T21:32:03.452Z,74.90
2019-05-07T21:34:33.404Z,75.00
2019-05-07T21:37:04.266Z,75.20
2019-05-07T21:39:34.087Z,75.30
2019-05-07T21:42:03.908Z,75.70
2019-05-07T21:44:33.717Z,75.90
2019-05-07T21:47:04.023Z,76.40
2019-05-07T21:49:34.215Z,77.00
2019-05-07T21:52:04.106Z,77.20
2019-05-07T21:54:35.585Z,77.60
2019-05-07T21:57:12.906Z,78.00
2019-05-07T21:59:43.313Z,78.30
2019-05-07T22:02:18.227Z,78.30
2019-05-07T22:04:48.467Z,78.40
2019-05-07T22:07:18.608Z,78.80
2019-05-07T22:09:48.674Z,78.90
2019-05-07T22:12:18.765Z,79.00
2019-05-07T22:14:48.579Z,79.10
2019-05-07T22:17:18.391Z,79.20
2019-05-07T22:19:48.217Z,79.30
2019-05-07T22:22:18.088Z,79.30
2019-05-07T22:24:49.464Z,79.30
2019-05-07T22:27:22.090Z,79.10
2019-05-07T22:29:52.724Z,78.80
2019-05-07T22:32:43.773Z,78.70
2019-05-07T22:35:23.805Z,78.70
2019-05-07T22:37:58.144Z,78.70
2019-05-07T22:40:32.254Z,78.30
2019-05-07T22:43:04.005Z,78.10
2019-05-07T22:45:34.133Z,77.90
2019-05-07T22:48:04.110Z,77.90
2019-05-07T22:50:33.939Z,77.90
2019-05-07T22:53:03.751Z,78.00
2019-05-07T22:55:33.824Z,78.40
2019-05-07T22:58:08.580Z,77.90
2019-05-07T23:00:42.540Z,77.90
2019-05-07T23:03:12.530Z,77.90
2019-05-07T23:05:44.907Z,77.90
2019-05-07T23:08:14.375Z,77.90
2019-05-07T23:10:44.674Z,78.10
2019-05-07T23:13:14.825Z,78.10
2019-05-07T23:15:44.899Z,78.20
2019-05-07T23:18:14.727Z,78.20
2019-05-07T23:20:44.795Z,78.20
2019-05-07T23:23:14.872Z,78.40
2019-05-07T23:25:44.679Z,78.60
2019-05-07T23:28:14.517Z,78.70
2019-05-07T23:30:44.433Z,78.80
2019-05-07T23:33:15.595Z,78.90
2019-05-07T23:35:45.390Z,78.70
2019-05-07T23:38:15.972Z,78.80
2019-05-07T23:40:48.947Z,78.80
2019-05-07T23:43:22.608Z,79.00
2019-05-07T23:45:52.592Z,79.00
2019-05-07T23:48:22.906Z,79.00
2019-05-07T23:50:52.806Z,79.00
2019-05-07T23:53:22.868Z,79.00
2019-05-07T23:55:53.091Z,79.10
2019-05-07T23:58:23.103Z,79.30
